< < Back
Terminal Aerodrome Forecast


Current Version              Previous Versions:   1  2  3  4  5  6  7  8  9  

Terminal Aerodrome Forecast

932
FTUS42 KJAX 190200 AAA
TAFJAX
TAF AMD
KJAX 190251Z 1903/1924 17010KT P6SM SCT015 OVC035
      TEMPO 1903/1905 6SM -SHRA OVC005
     FM190700 19006KT P6SM SCT008 BKN015
     FM191400 18010KT P6SM SCT015 BKN035
     FM191900 10007KT P6SM VCSH BKN040=

Latest METAR

139
SAUS80 KWBC 190400
MTRJAX
METAR KJAX 190356Z 06003KT 2SM -RA BR FEW004 BKN030 OVC055 18/18 A2991
RMK AO2 SFC VIS 6 RAE04B27 SLP128 P0001 T01780178 $


USA.gov is the U.S. government's official web portal to all federal, state and local government web resources and services.